Time;durP1;ratioP1;P1;durP2;ratioP2;P2;SDS_P1;SDS_P2;PMS_P1;PMS_P2;Temp;Humidity;BMP_temperature;BMP_pressure;BME280_temperature;BME280_humidity;BME280_pressure;Samples;Min_cycle;Max_cycle;Signal;HPM_P1;HPM_P2
2022/11/20 00:02:15;;;;;;;;;;;;;;;6.76;79.29;97801.75;7372044;19;19954;-75
2022/11/20 00:04:41;;;;;;;;;;;;;;;6.93;79.04;97804.59;7359073;19;19921;-75
2022/11/20 00:07:08;;;;;;;;;;;;;;;6.84;79.35;97810.72;7363024;19;19927;-76
2022/11/20 00:09:34;;;;;;;;;;;;;;;6.91;79.31;97806.53;7359923;19;19926;-75
2022/11/20 00:12:01;;;;;;;;;;;;;;;6.96;78.98;97802.47;7360635;19;19922;-75
2022/11/20 00:14:27;;;;;;;;;;;;;;;7.07;79.17;97811.97;7355416;19;19915;-75
2022/11/20 00:16:54;;;;;;;;;;;;;;;7.17;78.40;97804.84;7356194;19;19919;-76
2022/11/20 00:19:21;;;;;;;;;;;;;;;7.12;78.09;97801.00;7355116;19;19923;-75
2022/11/20 00:21:51;;;;;;;;;;;;;;;7.01;78.29;97800.25;7359688;19;19926;-75
2022/11/20 00:24:18;;;;;;;;;;;;;;;6.71;78.90;97811.03;7355842;19;19919;-76
2022/11/20 00:26:45;;;;;;;;;;;;;;;6.85;79.04;97797.44;7355681;19;20866;-76
2022/11/20 00:29:11;;;;;;;;;;;;;;;7.01;78.62;97800.25;7357962;19;20430;-75
2022/11/20 00:31:38;;;;;;;;;;;;;;;6.99;78.27;97802.19;7356395;19;19922;-76
2022/11/20 00:34:04;;;;;;;;;;;;;;;6.94;79.02;97809.69;7368354;19;22256;-75
2022/11/20 00:36:32;;;;;;;;;;;;;;;6.93;78.93;97792.25;7374429;19;19918;-75
2022/11/20 00:38:59;;;;;;;;;;;;;;;6.98;78.26;97797.09;7373810;19;19914;-76
2022/11/20 00:41:26;;;;;;;;;;;;;;;6.99;78.72;97801.34;7372046;19;20325;-75
2022/11/20 00:43:53;;;;;;;;;;;;;;;6.97;78.52;97804.13;7374202;19;20611;-75
2022/11/20 00:46:25;;;;;;;;;;;;;;;7.00;78.65;97798.59;7370743;19;19923;-75
2022/11/20 00:48:51;;;;;;;;;;;;;;;6.92;78.68;97798.47;7370317;19;20620;-75
2022/11/20 00:51:19;;;;;;;;;;;;;;;6.90;78.88;97800.44;7368536;19;20528;-75
2022/11/20 00:53:46;;;;;;;;;;;;;;;6.98;78.70;97800.53;7366979;19;19933;-75
2022/11/20 00:56:13;;;;;;;;;;;;;;;7.01;78.69;97797.63;7370290;19;19930;-75
2022/11/20 00:58:40;;;;;;;;;;;;;;;6.98;78.36;97797.09;7366780;19;19955;-75
2022/11/20 01:01:11;;;;;;;;;;;;;;;6.97;78.64;97798.88;7369350;19;19926;-75
2022/11/20 01:03:41;;;;;;;;;;;;;;;7.08;78.39;97803.09;7365046;19;19935;-75
2022/11/20 01:06:27;;;;;;;;;;;;;;;7.03;78.55;97808.00;7362113;19;19927;-75
2022/11/20 01:08:55;;;;;;;;;;;;;;;7.00;78.51;97808.25;7364298;19;20269;-75
2022/11/20 01:11:26;;;;;;;;;;;;;;;6.87;78.67;97807.78;7369454;19;19927;-76
2022/11/20 01:13:53;;;;;;;;;;;;;;;6.78;78.90;97806.88;7364592;19;19948;-75
2022/11/20 01:16:26;;;;;;;;;;;;;;;6.91;78.63;97815.25;7364185;19;19931;-74
2022/11/20 01:18:54;;;;;;;;;;;;;;;6.90;78.58;97810.13;7367398;19;19975;-75
2022/11/20 01:21:21;;;;;;;;;;;;;;;6.89;78.79;97813.72;7372539;19;19939;-75
2022/11/20 01:23:49;;;;;;;;;;;;;;;6.85;78.85;97813.22;7371695;19;19931;-75
2022/11/20 01:26:17;;;;;;;;;;;;;;;6.81;78.90;97819.72;7373046;19;19915;-75
2022/11/20 01:28:43;;;;;;;;;;;;;;;6.79;79.03;97825.13;7370963;19;20039;-75
2022/11/20 01:31:13;;;;;;;;;;;;;;;6.76;79.08;97827.22;7374753;19;19915;-75
2022/11/20 01:33:40;;;;;;;;;;;;;;;6.85;79.48;97826.34;7373211;19;20347;-75
2022/11/20 01:36:07;;;;;;;;;;;;;;;6.62;79.77;97825.88;7371036;19;20351;-75
2022/11/20 01:38:34;;;;;;;;;;;;;;;6.79;79.38;97825.13;7372790;19;19954;-75
2022/11/20 01:41:01;;;;;;;;;;;;;;;6.97;79.29;97825.16;7376347;19;19922;-75
2022/11/20 01:43:28;;;;;;;;;;;;;;;6.94;79.18;97830.72;7381150;19;19936;-75
2022/11/20 01:45:58;;;;;;;;;;;;;;;6.81;79.56;97825.78;7381720;19;19919;-75
2022/11/20 01:48:25;;;;;;;;;;;;;;;6.86;79.54;97821.91;7378691;19;19918;-75
2022/11/20 01:50:52;;;;;;;;;;;;;;;6.95;78.96;97821.88;7376635;19;19915;-75
2022/11/20 01:53:19;;;;;;;;;;;;;;;6.94;78.67;97809.69;7380780;19;19921;-75
2022/11/20 01:55:47;;;;;;;;;;;;;;;6.75;79.08;97813.25;7375229;19;21239;-75
2022/11/20 01:58:14;;;;;;;;;;;;;;;6.95;78.71;97818.41;7370878;19;19953;-75
2022/11/20 02:00:40;;;;;;;;;;;;;;;7.06;78.34;97806.84;7372754;19;19927;-75
2022/11/20 02:03:08;;;;;;;;;;;;;;;7.10;77.73;97816.09;7379289;19;20782;-76
2022/11/20 02:05:40;;;;;;;;;;;;;;;6.91;78.47;97814.41;7380077;19;21200;-74
2022/11/20 02:08:06;;;;;;;;;;;;;;;6.79;79.17;97813.75;7377708;19;20289;-75
2022/11/20 02:10:33;;;;;;;;;;;;;;;6.94;78.55;97817.56;7378178;19;20344;-76
2022/11/20 02:15:45;;;;;;;;;;;;;;;7.01;78.15;97808.13;7377084;19;19939;-75
2022/11/20 02:18:12;;;;;;;;;;;;;;;6.97;78.55;97819.91;7375782;19;19948;-75
2022/11/20 02:20:38;;;;;;;;;;;;;;;7.18;78.02;97817.03;7372533;19;19923;-76
2022/11/20 02:23:07;;;;;;;;;;;;;;;7.24;77.78;97821.72;7376638;19;19965;-75
2022/11/20 02:25:34;;;;;;;;;;;;;;;7.21;78.04;97822.00;7378164;19;19926;-75
2022/11/20 02:28:01;;;;;;;;;;;;;;;7.15;78.13;97822.56;7378439;19;19973;-74
2022/11/20 02:30:28;;;;;;;;;;;;;;;6.94;78.74;97822.84;7373578;19;20298;-75
2022/11/20 02:32:54;;;;;;;;;;;;;;;7.02;78.67;97815.03;7380860;19;20336;-74
2022/11/20 02:35:21;;;;;;;;;;;;;;;7.05;78.42;97816.53;7379268;19;19958;-75
2022/11/20 02:37:48;;;;;;;;;;;;;;;7.23;77.21;97817.41;7380000;19;19944;-75
2022/11/20 02:40:15;;;;;;;;;;;;;;;7.26;76.91;97818.91;7378488;19;19923;-75
2022/11/20 02:42:41;;;;;;;;;;;;;;;7.06;77.77;97822.63;7380369;19;19929;-75
2022/11/20 02:45:08;;;;;;;;;;;;;;;6.92;78.35;97818.69;7374468;19;20359;-75
2022/11/20 02:47:35;;;;;;;;;;;;;;;6.80;78.92;97815.44;7377182;19;19914;-75
2022/11/20 02:50:02;;;;;;;;;;;;;;;7.06;78.91;97817.38;7376349;19;19918;-75
2022/11/20 02:52:29;;;;;;;;;;;;;;;7.19;78.90;97817.88;7377283;19;19922;-75
2022/11/20 02:54:55;;;;;;;;;;;;;;;7.19;78.53;97820.50;7375657;19;19915;-75
2022/11/20 02:57:22;;;;;;;;;;;;;;;7.24;78.67;97818.22;7377614;19;19923;-75
2022/11/20 02:59:52;;;;;;;;;;;;;;;7.16;78.55;97816.38;7372956;19;20231;-75
2022/11/20 03:02:19;;;;;;;;;;;;;;;7.23;78.57;97827.94;7375603;19;20477;-75
2022/11/20 03:04:45;;;;;;;;;;;;;;;7.30;78.28;97820.28;7373167;19;20033;-75
2022/11/20 03:07:12;;;;;;;;;;;;;;;7.19;78.52;97813.44;7379054;19;19941;-75
2022/11/20 03:09:38;;;;;;;;;;;;;;;7.18;78.88;97819.66;7373773;19;19934;-75
2022/11/20 03:12:05;;;;;;;;;;;;;;;7.40;78.58;97807.88;7376565;19;21584;-75
2022/11/20 03:14:32;;;;;;;;;;;;;;;7.54;78.06;97814.44;7375353;19;19930;-74
2022/11/20 03:16:58;;;;;;;;;;;;;;;7.48;77.97;97810.59;7374823;19;19948;-75
2022/11/20 03:19:25;;;;;;;;;;;;;;;7.49;78.17;97803.53;7371241;19;19936;-75
2022/11/20 03:21:52;;;;;;;;;;;;;;;7.47;78.24;97811.56;7375861;19;19919;-75
2022/11/20 03:24:19;;;;;;;;;;;;;;;7.45;78.00;97813.53;7375158;19;19952;-75
2022/11/20 03:26:45;;;;;;;;;;;;;;;7.42;78.09;97807.72;7377753;19;20343;-75
2022/11/20 03:29:12;;;;;;;;;;;;;;;7.45;78.60;97800.38;7377854;19;19953;-75
2022/11/20 03:31:40;;;;;;;;;;;;;;;7.53;78.29;97802.25;7378835;19;20086;-75
2022/11/20 03:34:07;;;;;;;;;;;;;;;7.57;77.91;97800.16;7372957;19;19922;-74
2022/11/20 03:36:34;;;;;;;;;;;;;;;7.52;78.07;97799.75;7375243;19;19965;-75
2022/11/20 03:39:00;;;;;;;;;;;;;;;7.51;77.91;97798.13;7373401;19;19951;-75
2022/11/20 03:41:28;;;;;;;;;;;;;;;7.47;77.77;97806.28;7375796;19;19926;-75
2022/11/20 03:43:55;;;;;;;;;;;;;;;7.50;77.40;97799.91;7375996;19;19926;-74
2022/11/20 03:46:22;;;;;;;;;;;;;;;7.43;77.70;97799.69;7377425;19;19923;-75
2022/11/20 03:48:48;;;;;;;;;;;;;;;7.54;77.42;97797.81;7374257;19;19940;-75
2022/11/20 03:51:18;;;;;;;;;;;;;;;7.49;77.94;97793.00;7373484;19;19939;-75
2022/11/20 03:53:45;;;;;;;;;;;;;;;7.46;78.00;97795.94;7372242;19;19948;-75
2022/11/20 03:56:13;;;;;;;;;;;;;;;7.50;77.56;97794.63;7374516;19;19919;-75
2022/11/20 03:58:40;;;;;;;;;;;;;;;7.39;78.31;97795.69;7375518;19;19966;-75
2022/11/20 04:01:10;;;;;;;;;;;;;;;7.46;78.08;97790.66;7375471;19;19918;-75
2022/11/20 04:03:37;;;;;;;;;;;;;;;7.54;77.76;97790.75;7369802;19;19927;-75
2022/11/20 04:06:33;;;;;;;;;;;;;;;7.40;78.13;97797.38;7371662;19;19942;-75
2022/11/20 04:09:00;;;;;;;;;;;;;;;7.45;78.27;97799.53;7371957;19;19926;-75
2022/11/20 04:11:27;;;;;;;;;;;;;;;7.42;77.79;97798.03;7374111;19;19948;-75
2022/11/20 04:13:55;;;;;;;;;;;;;;;7.34;77.38;97792.69;7370272;19;19933;-75
2022/11/20 04:16:22;;;;;;;;;;;;;;;7.38;77.45;97794.03;7377557;19;19927;-75
2022/11/20 04:18:53;;;;;;;;;;;;;;;7.14;76.69;97793.81;7373904;19;19927;-75
2022/11/20 04:21:20;;;;;;;;;;;;;;;7.20;76.46;97796.66;7374720;19;20252;-75
2022/11/20 04:23:47;;;;;;;;;;;;;;;7.30;77.08;97791.34;7372275;19;19926;-75
2022/11/20 04:26:14;;;;;;;;;;;;;;;7.25;76.95;97786.50;7371733;19;19926;-75
2022/11/20 04:28:41;;;;;;;;;;;;;;;7.15;76.52;97788.38;7375050;19;21021;-75
2022/11/20 04:31:09;;;;;;;;;;;;;;;7.25;77.02;97785.69;7376370;19;19922;-75
2022/11/20 04:33:35;;;;;;;;;;;;;;;7.11;76.27;97787.03;7372330;19;19921;-75
2022/11/20 04:36:03;;;;;;;;;;;;;;;7.16;76.93;97791.84;7375963;19;19973;-75
2022/11/20 04:38:30;;;;;;;;;;;;;;;6.98;76.16;97787.38;7374834;19;19923;-75
2022/11/20 04:40:58;;;;;;;;;;;;;;;7.11;76.60;97787.03;7371624;19;20642;-75
2022/11/20 04:43:24;;;;;;;;;;;;;;;7.11;76.93;97786.19;7375846;19;20252;-75
2022/11/20 04:45:52;;;;;;;;;;;;;;;7.18;77.13;97788.09;7373278;19;21543;-75
2022/11/20 04:48:19;;;;;;;;;;;;;;;7.29;76.85;97791.47;7374034;19;19943;-75
2022/11/20 04:50:45;;;;;;;;;;;;;;;7.37;77.00;97792.41;7375002;19;19919;-75
2022/11/20 04:53:12;;;;;;;;;;;;;;;7.15;76.37;97787.56;7373863;19;19960;-75
2022/11/20 04:55:38;;;;;;;;;;;;;;;7.25;77.12;97791.78;7375547;19;19922;-76
2022/11/20 04:58:05;;;;;;;;;;;;;;;7.31;75.90;97787.72;7372881;19;19930;-75
2022/11/20 05:00:33;;;;;;;;;;;;;;;7.37;76.41;97788.91;7369284;19;19931;-75
2022/11/20 05:02:59;;;;;;;;;;;;;;;7.34;76.10;97786.59;7370701;19;20491;-75
2022/11/20 05:05:26;;;;;;;;;;;;;;;7.33;76.88;97784.94;7372079;19;19923;-75
2022/11/20 05:07:55;;;;;;;;;;;;;;;7.39;76.76;97790.44;7373401;19;19948;-75
2022/11/20 05:10:21;;;;;;;;;;;;;;;7.41;77.23;97785.03;7372449;19;19963;-75
2022/11/20 05:12:48;;;;;;;;;;;;;;;7.44;75.95;97785.53;7374556;19;20298;-75
2022/11/20 05:15:15;;;;;;;;;;;;;;;7.40;76.13;97786.84;7372875;19;20583;-75
2022/11/20 05:17:46;;;;;;;;;;;;;;;7.34;76.48;97784.78;7377867;19;19925;-75
2022/11/20 05:20:13;;;;;;;;;;;;;;;7.41;76.94;97793.75;7379266;19;19940;-75
2022/11/20 05:22:39;;;;;;;;;;;;;;;7.58;76.89;97792.09;7381759;19;19915;-76
2022/11/20 05:25:06;;;;;;;;;;;;;;;7.59;76.87;97796.38;7379724;19;20393;-76
2022/11/20 05:27:32;;;;;;;;;;;;;;;7.62;75.38;97790.00;7381262;19;19914;-75
2022/11/20 05:29:59;;;;;;;;;;;;;;;7.48;76.20;97800.06;7381505;19;19944;-76
2022/11/20 05:32:26;;;;;;;;;;;;;;;7.54;76.27;97795.19;7381336;19;21295;-75
2022/11/20 05:34:52;;;;;;;;;;;;;;;7.64;76.37;97795.94;7378572;19;19918;-76
2022/11/20 05:37:19;;;;;;;;;;;;;;;7.55;76.49;97795.00;7381011;19;19927;-75
2022/11/20 05:39:46;;;;;;;;;;;;;;;7.63;76.53;97789.81;7375996;19;19919;-75
2022/11/20 05:42:32;;;;;;;;;;;;;;;7.68;76.25;97794.63;7382837;19;20572;-75
2022/11/20 05:44:58;;;;;;;;;;;;;;;7.68;76.38;97787.56;7381304;19;20465;-75
2022/11/20 05:47:26;;;;;;;;;;;;;;;7.65;76.49;97789.69;7377729;19;19919;-75
2022/11/20 05:49:54;;;;;;;;;;;;;;;7.77;75.90;97785.84;7371634;19;19954;-75
2022/11/20 05:52:21;;;;;;;;;;;;;;;7.73;76.29;97787.13;7378793;19;19967;-75
2022/11/20 05:54:47;;;;;;;;;;;;;;;7.70;76.61;97782.97;7377973;19;19973;-75
2022/11/20 05:57:14;;;;;;;;;;;;;;;7.60;76.85;97778.78;7379596;19;19944;-75
2022/11/20 05:59:40;;;;;;;;;;;;;;;7.71;76.31;97783.81;7378486;19;19931;-75
2022/11/20 06:02:07;;;;;;;;;;;;;;;7.73;76.03;97784.47;7380425;19;19964;-75
2022/11/20 06:04:33;;;;;;;;;;;;;;;7.69;76.50;97783.16;7376177;19;19918;-75
2022/11/20 06:07:00;;;;;;;;;;;;;;;7.78;76.02;97782.22;7379412;19;20343;-74
2022/11/20 06:09:27;;;;;;;;;;;;;;;7.60;76.38;97781.41;7376838;19;19926;-74
2022/11/20 06:11:53;;;;;;;;;;;;;;;7.58;76.23;97783.34;7381190;19;19934;-74
2022/11/20 06:14:20;;;;;;;;;;;;;;;7.59;75.97;97777.97;7375571;19;19935;-75
2022/11/20 06:16:46;;;;;;;;;;;;;;;7.59;76.53;97785.84;7380681;19;19930;-75
2022/11/20 06:19:13;;;;;;;;;;;;;;;7.63;76.45;97771.38;7378453;19;19930;-75
2022/11/20 06:21:40;;;;;;;;;;;;;;;7.61;76.43;97772.53;7373798;19;20601;-74
2022/11/20 06:24:08;;;;;;;;;;;;;;;7.53;76.36;97767.19;7377654;19;19923;-75
2022/11/20 06:26:35;;;;;;;;;;;;;;;7.55;75.31;97770.50;7379090;19;19923;-75
2022/11/20 06:29:01;;;;;;;;;;;;;;;7.46;76.32;97770.44;7378604;19;19932;-75
2022/11/20 06:31:28;;;;;;;;;;;;;;;7.54;76.08;97774.94;7380867;19;19931;-75
2022/11/20 06:33:55;;;;;;;;;;;;;;;7.47;75.87;97768.63;7380945;19;20288;-75
2022/11/20 06:36:22;;;;;;;;;;;;;;;7.54;76.55;97767.06;7379329;19;20383;-75
2022/11/20 06:38:48;;;;;;;;;;;;;;;7.47;76.59;97772.06;7377062;19;21216;-75
2022/11/20 06:41:16;;;;;;;;;;;;;;;7.53;76.73;97775.09;7374262;19;20398;-75
2022/11/20 06:43:43;;;;;;;;;;;;;;;7.56;76.11;97772.19;7378472;19;19918;-74
2022/11/20 06:46:10;;;;;;;;;;;;;;;7.64;75.94;97775.69;7380445;19;19922;-75
2022/11/20 06:48:37;;;;;;;;;;;;;;;7.62;76.27;97784.72;7378185;19;19948;-75
2022/11/20 06:51:04;;;;;;;;;;;;;;;7.74;75.97;97778.25;7378804;19;19922;-74
2022/11/20 06:53:31;;;;;;;;;;;;;;;7.75;75.68;97785.16;7374231;19;19947;-75
2022/11/20 06:55:57;;;;;;;;;;;;;;;7.75;75.46;97773.81;7374835;19;19944;-75
2022/11/20 06:58:26;;;;;;;;;;;;;;;7.65;75.77;97774.72;7376029;19;19922;-75
2022/11/20 07:00:52;;;;;;;;;;;;;;;7.63;75.87;97774.03;7374837;19;19964;-75
2022/11/20 07:03:19;;;;;;;;;;;;;;;7.60;76.02;97784.88;7377875;19;20911;-75
2022/11/20 07:05:46;;;;;;;;;;;;;;;7.58;76.42;97783.34;7376512;19;19923;-74
2022/11/20 07:08:12;;;;;;;;;;;;;;;7.55;76.63;97781.03;7378331;19;19918;-75
2022/11/20 07:10:39;;;;;;;;;;;;;;;7.63;76.31;97789.81;7376048;19;20285;-75
2022/11/20 07:13:06;;;;;;;;;;;;;;;7.75;75.64;97782.53;7376954;19;19930;-75
2022/11/20 07:15:33;;;;;;;;;;;;;;;7.69;75.72;97786.59;7373545;19;19923;-75
2022/11/20 07:18:00;;;;;;;;;;;;;;;7.65;76.05;97787.03;7377118;19;19940;-77
2022/11/20 07:20:26;;;;;;;;;;;;;;;7.59;76.49;97790.28;7374463;19;19940;-75
2022/11/20 07:22:57;;;;;;;;;;;;;;;7.55;76.44;97786.28;7376755;19;19931;-75
2022/11/20 07:25:24;;;;;;;;;;;;;;;7.59;76.48;97792.94;7374710;19;19927;-75
2022/11/20 07:27:50;;;;;;;;;;;;;;;7.62;76.52;97790.81;7374868;19;19940;-75
2022/11/20 07:30:17;;;;;;;;;;;;;;;7.68;76.56;97806.00;7376268;19;19922;-75
2022/11/20 07:32:47;;;;;;;;;;;;;;;7.76;76.40;97799.16;7376043;19;19919;-75
2022/11/20 07:35:14;;;;;;;;;;;;;;;7.77;76.38;97793.75;7374076;19;19927;-74
2022/11/20 07:37:40;;;;;;;;;;;;;;;7.88;76.37;97796.13;7375655;19;19918;-75
2022/11/20 07:40:07;;;;;;;;;;;;;;;7.90;76.23;97799.44;7376505;19;19926;-76
2022/11/20 07:42:33;;;;;;;;;;;;;;;7.95;76.33;97809.50;7379183;19;19952;-75
2022/11/20 07:45:00;;;;;;;;;;;;;;;8.02;74.81;97799.19;7374275;19;19922;-75
2022/11/20 07:47:28;;;;;;;;;;;;;;;7.81;74.02;97800.34;7373748;19;19927;-75
2022/11/20 07:49:54;;;;;;;;;;;;;;;7.96;74.77;97795.38;7373702;19;19930;-75
2022/11/20 07:52:21;;;;;;;;;;;;;;;8.00;75.62;97798.50;7372108;19;19919;-75
2022/11/20 07:54:47;;;;;;;;;;;;;;;8.07;74.87;97799.56;7370993;19;19918;-75
2022/11/20 07:57:14;;;;;;;;;;;;;;;8.09;75.53;97808.13;7369784;19;20678;-75
2022/11/20 07:59:41;;;;;;;;;;;;;;;7.93;75.03;97803.56;7367030;19;19953;-75
2022/11/20 08:02:09;;;;;;;;;;;;;;;8.12;75.40;97802.56;7366842;19;19932;-75
2022/11/20 08:04:36;;;;;;;;;;;;;;;8.08;75.30;97806.47;7365663;19;19930;-75
2022/11/20 08:07:03;;;;;;;;;;;;;;;8.15;75.61;97810.16;7370480;19;19923;-75
2022/11/20 08:09:30;;;;;;;;;;;;;;;7.95;74.05;97808.69;7367367;19;19997;-75
2022/11/20 08:14:42;;;;;;;;;;;;;;;8.04;75.42;97813.88;7367893;19;19977;-75
2022/11/20 08:17:12;;;;;;;;;;;;;;;8.07;74.93;97815.38;7372944;19;19911;-75
2022/11/20 08:19:39;;;;;;;;;;;;;;;8.06;74.80;97814.53;7368275;19;19977;-74
2022/11/20 08:22:08;;;;;;;;;;;;;;;8.11;75.55;97812.28;7370374;19;19921;-74
2022/11/20 08:24:35;;;;;;;;;;;;;;;8.12;75.95;97813.09;7370338;19;19915;-74
2022/11/20 08:27:02;;;;;;;;;;;;;;;8.14;75.64;97817.22;7374125;19;20461;-74
2022/11/20 08:29:28;;;;;;;;;;;;;;;8.30;75.47;97820.97;7375270;19;20330;-74
2022/11/20 08:31:55;;;;;;;;;;;;;;;8.19;75.98;97821.19;7374560;19;21160;-75
2022/11/20 08:34:21;;;;;;;;;;;;;;;8.39;75.87;97821.84;7375441;19;20865;-74
2022/11/20 08:36:48;;;;;;;;;;;;;;;8.34;76.14;97822.28;7373710;19;20391;-74
2022/11/20 08:39:15;;;;;;;;;;;;;;;8.42;75.99;97816.28;7374249;19;19926;-74
2022/11/20 08:41:42;;;;;;;;;;;;;;;8.54;75.66;97823.78;7377212;19;19926;-75
2022/11/20 08:44:08;;;;;;;;;;;;;;;8.48;75.86;97827.03;7374688;19;19939;-75
2022/11/20 08:46:37;;;;;;;;;;;;;;;8.45;74.61;97824.72;7377497;19;19934;-75
2022/11/20 08:49:04;;;;;;;;;;;;;;;8.43;73.14;97825.84;7373600;19;19919;-75
2022/11/20 08:51:31;;;;;;;;;;;;;;;8.51;74.84;97829.34;7373244;19;20292;-75
2022/11/20 08:53:58;;;;;;;;;;;;;;;8.62;75.08;97827.44;7368514;19;20285;-74
2022/11/20 08:56:25;;;;;;;;;;;;;;;8.61;74.71;97829.25;7386707;19;19931;-75
2022/11/20 08:58:56;;;;;;;;;;;;;;;8.56;75.62;97827.09;7382074;19;19994;-75
2022/11/20 09:01:43;;;;;;;;;;;;;;;8.52;75.98;97823.09;7375172;19;19927;-74
2022/11/20 09:04:11;;;;;;;;;;;;;;;8.46;75.27;97826.38;7371178;19;19947;-74
2022/11/20 09:06:41;;;;;;;;;;;;;;;8.60;74.89;97827.59;7373372;19;19966;-75
2022/11/20 09:09:07;;;;;;;;;;;;;;;8.64;74.30;97834.22;7372447;19;19953;-75
2022/11/20 09:11:34;;;;;;;;;;;;;;;8.41;73.52;97831.28;7375309;19;19945;-75
2022/11/20 09:14:02;;;;;;;;;;;;;;;8.55;74.82;97835.97;7372736;19;21164;-74
2022/11/20 09:16:30;;;;;;;;;;;;;;;8.58;75.58;97840.09;7375792;19;19915;-74
2022/11/20 09:18:58;;;;;;;;;;;;;;;8.40;75.78;97842.81;7373105;19;19915;-75
2022/11/20 09:21:45;;;;;;;;;;;;;;;8.10;76.04;97841.41;7369410;19;19910;-74
2022/11/20 09:24:12;;;;;;;;;;;;;;;8.05;75.97;97846.28;7371017;19;19919;-75
2022/11/20 09:26:39;;;;;;;;;;;;;;;8.14;75.79;97848.84;7370417;19;19922;-74
2022/11/20 09:29:05;;;;;;;;;;;;;;;7.95;76.17;97848.19;7369788;19;19922;-74
2022/11/20 09:31:32;;;;;;;;;;;;;;;8.09;75.91;97842.38;7372173;19;20738;-75
2022/11/20 09:33:59;;;;;;;;;;;;;;;8.06;75.86;97845.34;7372998;19;19923;-73
2022/11/20 09:36:26;;;;;;;;;;;;;;;7.99;76.25;97842.47;7373164;19;19926;-74
2022/11/20 09:38:53;;;;;;;;;;;;;;;8.11;76.03;97851.78;7371348;19;19935;-75
2022/11/20 09:41:39;;;;;;;;;;;;;;;8.22;76.18;97856.00;7370892;19;19915;-74
2022/11/20 09:44:18;;;;;;;;;;;;;;;8.27;76.00;97845.00;7373193;19;19923;-74
2022/11/20 09:46:53;;;;;;;;;;;;;;;8.03;76.22;97858.78;7371703;19;19955;-73
2022/11/20 09:49:23;;;;;;;;;;;;;;;8.06;76.34;97854.06;7371762;19;19930;-74
2022/11/20 09:51:58;;;;;;;;;;;;;;;8.08;75.28;97853.88;7375251;19;19930;-74
2022/11/20 09:54:30;;;;;;;;;;;;;;;8.02;76.00;97857.97;7375074;19;19930;-74
2022/11/20 09:56:59;;;;;;;;;;;;;;;8.05;75.63;97855.03;7371696;19;19955;-74
2022/11/20 09:59:28;;;;;;;;;;;;;;;8.05;76.00;97860.28;7367007;19;19929;-74
2022/11/20 10:01:55;;;;;;;;;;;;;;;8.23;75.44;97855.00;7373190;19;19952;-75
2022/11/20 10:04:21;;;;;;;;;;;;;;;8.15;74.86;97857.56;7378426;19;20003;-75
2022/11/20 10:06:54;;;;;;;;;;;;;;;8.16;75.50;97859.22;7380258;19;19943;-74
2022/11/20 10:09:42;;;;;;;;;;;;;;;8.29;74.95;97849.13;7376207;19;20359;-76
2022/11/20 10:12:09;;;;;;;;;;;;;;;7.90;75.79;97861.84;7378600;19;19960;-75
2022/11/20 10:14:35;;;;;;;;;;;;;;;8.29;75.80;97861.47;7376171;19;19925;-74
2022/11/20 10:17:06;;;;;;;;;;;;;;;8.20;76.31;97865.03;7376325;19;19911;-76
2022/11/20 10:19:35;;;;;;;;;;;;;;;8.13;76.79;97857.72;7377603;19;19953;-76
2022/11/20 10:22:21;;;;;;;;;;;;;;;8.25;76.54;97860.94;7379294;19;19923;-77
2022/11/20 10:24:48;;;;;;;;;;;;;;;8.36;76.05;97863.31;7378446;19;19926;-75
2022/11/20 10:27:23;;;;;;;;;;;;;;;8.37;76.56;97858.88;7372756;19;19931;-77
2022/11/20 10:29:59;;;;;;;;;;;;;;;8.17;76.40;97867.97;7357697;19;19925;-76
2022/11/20 10:32:28;;;;;;;;;;;;;;;8.23;76.59;97872.63;7361510;19;19942;-75
2022/11/20 10:34:58;;;;;;;;;;;;;;;8.03;77.80;97878.06;7360486;19;19933;-75
2022/11/20 10:37:25;;;;;;;;;;;;;;;8.18;78.08;97872.25;7361022;19;21733;-76
2022/11/20 10:40:01;;;;;;;;;;;;;;;8.16;78.10;97871.56;7359177;19;20438;-76
2022/11/20 10:42:37;;;;;;;;;;;;;;;7.94;79.04;97872.88;7357906;19;19975;-75
2022/11/20 10:45:24;;;;;;;;;;;;;;;8.09;78.53;97874.81;7363621;19;19918;-76
2022/11/20 10:47:51;;;;;;;;;;;;;;;8.23;78.75;97876.09;7355278;19;19926;-77
2022/11/20 10:50:18;;;;;;;;;;;;;;;8.18;78.79;97861.72;7355977;19;20598;-76
2022/11/20 10:52:57;;;;;;;;;;;;;;;7.98;78.94;97868.94;7352950;19;19923;-76
2022/11/20 10:55:32;;;;;;;;;;;;;;;8.12;78.72;97868.44;7356630;19;19943;-76
2022/11/20 10:58:13;;;;;;;;;;;;;;;8.00;78.67;97869.63;7367649;19;19926;-74
2022/11/20 11:00:40;;;;;;;;;;;;;;;8.00;79.02;97870.44;7369009;19;19926;-75
2022/11/20 11:03:34;;;;;;;;;;;;;;;8.02;78.88;97859.78;7371040;19;19918;-75
2022/11/20 11:06:07;;;;;;;;;;;;;;;7.92;78.68;97859.84;7368069;19;19939;-75
2022/11/20 11:08:38;;;;;;;;;;;;;;;7.71;79.33;97849.63;7367653;19;19944;-74
2022/11/20 11:11:20;;;;;;;;;;;;;;;7.63;79.65;97855.63;7371586;19;19933;-74
2022/11/20 11:13:47;;;;;;;;;;;;;;;8.02;79.17;97854.50;7368849;19;19934;-76
2022/11/20 11:16:25;;;;;;;;;;;;;;;8.01;78.98;97852.88;7370124;19;19936;-74
2022/11/20 11:18:51;;;;;;;;;;;;;;;7.92;79.44;97849.31;7369865;19;19923;-74
2022/11/20 11:21:24;;;;;;;;;;;;;;;8.23;79.25;97841.81;7374827;19;19927;-75
2022/11/20 11:23:58;;;;;;;;;;;;;;;8.61;78.19;97838.97;7374608;19;19923;-76
2022/11/20 11:26:52;;;;;;;;;;;;;;;8.56;78.44;97836.81;7376762;19;19994;-75
2022/11/20 11:29:18;;;;;;;;;;;;;;;8.50;77.57;97830.31;7374607;19;19914;-76
2022/11/20 11:31:46;;;;;;;;;;;;;;;8.84;77.40;97833.97;7377659;19;20911;-75
2022/11/20 11:34:13;;;;;;;;;;;;;;;8.75;78.08;97830.47;7373405;19;19914;-75
2022/11/20 11:36:40;;;;;;;;;;;;;;;8.93;77.23;97817.22;7376807;19;19919;-75
2022/11/20 11:39:11;;;;;;;;;;;;;;;8.98;77.75;97817.56;7376795;19;19957;-75
2022/11/20 11:41:37;;;;;;;;;;;;;;;9.01;77.18;97819.88;7376731;19;19922;-75
2022/11/20 11:47:00;;;;;;;;;;;;;;;9.20;77.44;97810.84;7378168;19;19918;-74
2022/11/20 11:49:27;;;;;;;;;;;;;;;9.19;76.98;97809.22;7374740;19;19965;-76
2022/11/20 11:52:08;;;;;;;;;;;;;;;9.31;76.93;97809.72;7381937;19;19915;-75
2022/11/20 11:54:37;;;;;;;;;;;;;;;9.12;77.05;97797.66;7376744;19;22678;-73
2022/11/20 11:57:33;;;;;;;;;;;;;;;9.07;76.87;97797.28;7375968;19;20473;-75
2022/11/20 12:00:09;;;;;;;;;;;;;;;9.06;76.33;97793.84;7369906;19;19919;-75
2022/11/20 12:02:49;;;;;;;;;;;;;;;9.42;76.10;97794.41;7376549;19;19919;-76
2022/11/20 12:05:27;;;;;;;;;;;;;;;9.33;75.11;97784.00;7376945;19;19975;-74
2022/11/20 12:08:13;;;;;;;;;;;;;;;9.41;74.66;97787.47;7379413;19;19923;-74
2022/11/20 12:11:07;;;;;;;;;;;;;;;9.60;75.16;97788.16;7379494;19;19922;-75
2022/11/20 12:13:33;;;;;;;;;;;;;;;9.51;74.92;97781.22;7372684;19;19919;-74
2022/11/20 12:16:00;;;;;;;;;;;;;;;9.61;74.49;97782.72;7378095;19;19922;-75
2022/11/20 12:18:27;;;;;;;;;;;;;;;9.58;74.21;97792.78;7378894;19;20683;-74
2022/11/20 12:20:55;;;;;;;;;;;;;;;9.43;73.92;97776.75;7376931;19;19944;-75
2022/11/20 12:23:25;;;;;;;;;;;;;;;9.42;73.33;97778.56;7373557;19;19926;-74
2022/11/20 12:25:52;;;;;;;;;;;;;;;9.38;71.89;97781.72;7359090;19;19915;-75
2022/11/20 12:28:33;;;;;;;;;;;;;;;9.32;73.12;97774.41;7356132;19;19994;-75
2022/11/20 12:31:18;;;;;;;;;;;;;;;9.16;72.91;97773.41;7354835;19;19930;-75
2022/11/20 12:33:48;;;;;;;;;;;;;;;9.48;72.36;97770.97;7358692;19;21137;-76
2022/11/20 12:36:33;;;;;;;;;;;;;;;9.42;72.13;97764.53;7359635;19;21429;-76
2022/11/20 12:39:04;;;;;;;;;;;;;;;9.56;72.73;97760.44;7357925;19;19974;-75
2022/11/20 12:47:34;;;;;;;;;;;;;;;9.51;71.47;97757.47;7358024;19;19923;-76
2022/11/20 12:50:07;;;;;;;;;;;;;;;9.50;70.25;97756.63;7352715;19;19982;-76
2022/11/20 12:52:38;;;;;;;;;;;;;;;9.53;69.37;97761.59;7360746;19;19919;-76
2022/11/20 12:55:04;;;;;;;;;;;;;;;9.62;69.36;97765.88;7368869;19;19950;-75
2022/11/20 12:57:43;;;;;;;;;;;;;;;9.78;69.52;97761.59;7373358;19;19944;-75
2022/11/20 13:00:18;;;;;;;;;;;;;;;9.57;69.19;97776.09;7370553;19;19918;-76
2022/11/20 13:02:48;;;;;;;;;;;;;;;9.31;68.49;97759.56;7369137;19;19915;-75
2022/11/20 13:05:17;;;;;;;;;;;;;;;9.10;69.07;97760.03;7372903;19;19923;-75
2022/11/20 13:07:45;;;;;;;;;;;;;;;8.87;69.54;97760.63;7374003;19;19971;-76
2022/11/20 13:10:23;;;;;;;;;;;;;;;8.79;68.90;97769.34;7376407;19;19918;-76
2022/11/20 13:12:53;;;;;;;;;;;;;;;8.31;68.47;97773.34;7373359;19;19954;-76
2022/11/20 13:15:20;;;;;;;;;;;;;;;8.55;69.37;97790.31;7370491;19;20295;-76
2022/11/20 13:17:51;;;;;;;;;;;;;;;8.45;69.89;97787.81;7373467;19;19918;-76
2022/11/20 13:20:18;;;;;;;;;;;;;;;8.58;69.78;97784.72;7371407;19;19922;-76
2022/11/20 13:22:48;;;;;;;;;;;;;;;8.62;68.74;97772.91;7367351;19;19923;-75